createdAt,value
2022-09-20T03:01:42.514Z,101050.16
2022-09-20T03:04:30.696Z,101041.88
2022-09-20T03:07:30.059Z,101049.16
2022-09-20T03:10:24.038Z,101047.59
2022-09-20T03:13:17.872Z,101054.75
2022-09-20T03:15:47.235Z,101053.19
2022-09-20T03:18:27.026Z,101066.53
2022-09-20T03:21:22.615Z,101060.34
2022-09-20T03:23:57.866Z,101055.63
2022-09-20T03:26:34.520Z,101064.34
2022-09-20T03:29:09.226Z,101061.28
2022-09-20T03:32:04.625Z,101067.41
2022-09-20T03:34:33.989Z,101071.44
2022-09-20T03:37:22.235Z,101070.00
2022-09-20T03:40:46.632Z,101069.31
2022-09-20T03:43:35.577Z,101076.81
2022-09-20T03:46:18.894Z,101079.34
2022-09-20T03:49:16.038Z,101072.88
2022-09-20T03:52:06.944Z,101071.78
2022-09-20T03:55:02.471Z,101067.28
2022-09-20T03:57:41.799Z,101074.25
2022-09-20T04:00:08.163Z,101072.72
2022-09-20T04:03:01.098Z,101072.72
2022-09-20T04:06:13.694Z,101077.06
2022-09-20T04:08:45.757Z,101076.94
2022-09-20T04:11:15.733Z,101086.97
2022-09-20T04:14:01.073Z,101084.47
2022-09-20T04:16:59.859Z,101081.28
2022-09-20T04:19:38.060Z,101090.84
2022-09-20T04:22:07.387Z,101084.94
2022-09-20T04:24:53.023Z,101081.69
2022-09-20T04:27:34.729Z,101087.44
2022-09-20T04:30:29.803Z,101090.03
2022-09-20T04:33:21.816Z,101085.78
2022-09-20T04:36:16.165Z,101084.41
2022-09-20T04:38:43.039Z,101087.63
2022-09-20T04:41:19.833Z,101091.97
2022-09-20T04:44:23.087Z,101084.50
2022-09-20T04:47:05.929Z,101089.03
2022-09-20T04:49:33.684Z,101088.56
2022-09-20T04:52:37.110Z,101097.47
2022-09-20T04:55:35.393Z,101089.97
2022-09-20T04:58:10.597Z,101097.03
2022-09-20T05:00:52.670Z,101104.31
2022-09-20T05:03:29.539Z,101100.53
2022-09-20T05:06:33.407Z,101099.97
2022-09-20T05:09:30.404Z,101106.59
2022-09-20T05:12:21.401Z,101114.91
2022-09-20T05:15:38.279Z,101116.38
2022-09-20T05:18:42.825Z,101120.25
2022-09-20T05:21:30.115Z,101124.81
2022-09-20T05:24:33.723Z,101135.34
2022-09-20T05:27:28.521Z,101136.22
2022-09-20T05:30:13.389Z,101135.34
2022-09-20T05:33:02.805Z,101143.81
2022-09-20T05:35:58.492Z,101143.81
2022-09-20T05:38:45.555Z,101149.16
2022-09-20T05:41:24.324Z,101139.06
2022-09-20T05:44:12.787Z,101148.50
2022-09-20T05:46:58.964Z,101152.72
2022-09-20T05:49:52.518Z,101153.72
2022-09-20T05:52:44.114Z,101156.03
2022-09-20T05:55:47.822Z,101162.75
2022-09-20T05:58:32.231Z,101168.97
2022-09-20T06:01:18.936Z,101163.63
2022-09-20T06:03:54.447Z,101166.06
2022-09-20T06:06:51.049Z,101176.47
2022-09-20T06:09:39.344Z,101172.88
2022-09-20T06:12:08.713Z,101177.41
2022-09-20T06:15:00.829Z,101179.53
2022-09-20T06:17:38.675Z,101177.97
2022-09-20T06:20:17.168Z,101179.56
2022-09-20T06:22:47.204Z,101186.75
2022-09-20T06:25:20.140Z,101192.94
2022-09-20T06:27:59.288Z,101189.66
2022-09-20T06:30:40.920Z,101185.00
2022-09-20T06:33:07.329Z,101194.97
2022-09-20T06:35:39.396Z,101197.22
2022-09-20T06:38:36.790Z,101201.00
2022-09-20T06:41:22.277Z,101203.50
2022-09-20T06:43:49.015Z,101201.97
2022-09-20T06:46:16.181Z,101210.91
2022-09-20T06:48:42.895Z,101209.16
2022-09-20T06:51:09.647Z,101211.09
2022-09-20T06:53:40.991Z,101204.06
2022-09-20T06:56:17.323Z,101206.25
2022-09-20T06:58:43.848Z,101210.06
2022-09-20T07:01:10.446Z,101200.06
2022-09-20T07:03:38.435Z,101214.09
2022-09-20T07:06:05.024Z,101209.16
2022-09-20T07:08:31.549Z,101226.25
2022-09-20T07:11:04.056Z,101227.31
2022-09-20T07:13:30.519Z,101220.28
2022-09-20T07:16:02.445Z,101234.31
2022-09-20T07:18:29.389Z,101224.72
2022-09-20T07:20:58.759Z,101226.72
2022-09-20T07:23:26.333Z,101232.19
2022-09-20T07:25:53.634Z,101228.53
2022-09-20T07:28:20.713Z,101232.75
2022-09-20T07:30:47.793Z,101241.84
2022-09-20T07:33:19.509Z,101243.34
2022-09-20T07:35:46.604Z,101243.91
2022-09-20T07:38:13.738Z,101239.63
2022-09-20T07:40:40.179Z,101242.03
2022-09-20T07:43:06.771Z,101244.75
2022-09-20T07:45:35.111Z,101254.34
2022-09-20T07:48:05.247Z,101249.03
2022-09-20T07:50:32.705Z,101246.69
2022-09-20T07:52:59.477Z,101248.84
2022-09-20T07:55:25.931Z,101256.28
2022-09-20T07:57:52.446Z,101257.13
2022-09-20T08:00:18.998Z,101261.16
2022-09-20T08:02:45.665Z,101261.47
2022-09-20T08:05:12.465Z,101257.19
2022-09-20T08:07:39.368Z,101265.91
2022-09-20T08:10:06.232Z,101267.16
2022-09-20T08:15:19.722Z,101262.97
2022-09-20T08:17:47.490Z,101265.78
2022-09-20T08:20:14.002Z,101274.06
2022-09-20T08:22:42.956Z,101275.41
2022-09-20T08:25:09.517Z,101270.44
2022-09-20T08:27:36.112Z,101265.59
2022-09-20T08:30:02.713Z,101266.72
2022-09-20T08:32:29.109Z,101276.06
2022-09-20T08:34:55.542Z,101272.88
2022-09-20T08:37:21.991Z,101284.22
2022-09-20T08:39:57.908Z,101289.56
2022-09-20T08:42:36.655Z,101294.06
2022-09-20T08:45:21.817Z,101288.50
2022-09-20T08:48:02.184Z,101294.19
2022-09-20T08:50:29.013Z,101292.91
2022-09-20T08:53:04.943Z,101293.16
2022-09-20T08:55:39.952Z,101297.66
2022-09-20T08:58:12.085Z,101296.66
2022-09-20T09:00:46.862Z,101302.16
2022-09-20T09:03:16.901Z,101302.09
2022-09-20T09:05:50.129Z,101290.50
2022-09-20T09:08:37.911Z,101302.53
2022-09-20T09:11:14.626Z,101296.47
2022-09-20T09:13:53.667Z,101296.59
2022-09-20T09:16:27.445Z,101300.19
2022-09-20T09:18:57.715Z,101299.41
2022-09-20T09:21:27.129Z,101292.69
2022-09-20T09:24:05.996Z,101300.03
2022-09-20T09:26:38.774Z,101298.97
2022-09-20T09:29:09.411Z,101297.31
2022-09-20T09:31:37.255Z,101300.88
2022-09-20T09:34:04.205Z,101304.00
2022-09-20T09:36:33.734Z,101302.59
2022-09-20T09:39:22.587Z,101309.03
2022-09-20T09:41:49.450Z,101312.41
2022-09-20T09:44:20.624Z,101305.34
2022-09-20T09:46:47.839Z,101309.72
2022-09-20T09:49:24.943Z,101310.78
2022-09-20T09:52:12.922Z,101317.84
2022-09-20T09:54:47.169Z,101307.16
2022-09-20T09:57:41.406Z,101310.78
2022-09-20T10:00:21.531Z,101306.53
2022-09-20T10:03:13.059Z,101308.63
2022-09-20T10:06:00.485Z,101302.13
2022-09-20T10:09:06.282Z,101300.22
2022-09-20T10:12:11.651Z,101295.63
2022-09-20T10:14:56.145Z,101297.03
2022-09-20T10:17:28.226Z,101298.81
2022-09-20T10:20:28.102Z,101301.53
2022-09-20T10:24:01.555Z,101295.16
2022-09-20T10:26:11.329Z,101298.56
2022-09-20T10:28:58.743Z,101300.84
2022-09-20T10:32:04.233Z,101309.91
2022-09-20T10:34:30.587Z,101304.66
2022-09-20T10:36:58.973Z,101308.63
2022-09-20T10:39:38.399Z,101303.41
2022-09-20T10:43:04.910Z,101300.91
2022-09-20T10:46:08.830Z,101302.38
2022-09-20T10:48:35.675Z,101300.22
2022-09-20T10:51:15.767Z,101311.78
2022-09-20T10:53:48.069Z,101316.38
2022-09-20T10:56:36.702Z,101315.22
2022-09-20T10:59:32.467Z,101319.47
2022-09-20T11:02:14.015Z,101311.91
2022-09-20T11:04:56.927Z,101319.44
2022-09-20T11:07:57.116Z,101318.06
2022-09-20T11:10:57.688Z,101323.88
2022-09-20T11:13:34.019Z,101316.66
2022-09-20T11:16:17.286Z,101327.56
2022-09-20T11:19:16.140Z,101331.34
2022-09-20T11:21:50.713Z,101326.03
2022-09-20T11:24:26.622Z,101328.75
2022-09-20T11:27:24.600Z,101340.59
2022-09-20T11:30:19.002Z,101340.56
2022-09-20T11:33:06.161Z,101346.72
2022-09-20T11:35:44.760Z,101360.31
2022-09-20T11:38:32.870Z,101356.63
2022-09-20T11:41:17.209Z,101362.50
2022-09-20T11:43:45.944Z,101357.28
2022-09-20T11:46:38.472Z,101345.53
2022-09-20T11:49:12.674Z,101345.88
2022-09-20T11:51:46.261Z,101341.81
2022-09-20T11:54:22.937Z,101346.22
2022-09-20T11:56:56.539Z,101357.88
2022-09-20T11:59:30.603Z,101354.94
2022-09-20T12:02:00.393Z,101356.59
2022-09-20T12:04:35.021Z,101363.03
2022-09-20T12:07:18.072Z,101355.81
2022-09-20T12:10:23.317Z,101354.22
2022-09-20T12:12:57.713Z,101355.78
2022-09-20T12:15:26.059Z,101354.50
2022-09-20T12:17:52.613Z,101354.84
2022-09-20T12:20:58.234Z,101355.72
2022-09-20T12:23:43.409Z,101350.00
2022-09-20T12:26:11.143Z,101358.97
2022-09-20T12:29:04.392Z,101356.72
2022-09-20T12:31:33.821Z,101341.84
2022-09-20T12:34:04.521Z,101354.19
2022-09-20T12:36:36.394Z,101347.59
2022-09-20T12:39:12.091Z,101351.59
2022-09-20T12:41:58.458Z,101359.91
2022-09-20T12:44:46.989Z,101350.22
2022-09-20T12:47:13.596Z,101351.16
2022-09-20T12:50:07.873Z,101354.88
2022-09-20T12:53:03.836Z,101360.91
2022-09-20T12:55:32.472Z,101363.69
2022-09-20T12:58:07.480Z,101370.56
2022-09-20T13:00:48.185Z,101381.56
2022-09-20T13:03:23.950Z,101377.59
2022-09-20T13:06:17.509Z,101386.75
2022-09-20T13:08:54.123Z,101397.06
2022-09-20T13:11:23.496Z,101400.31
2022-09-20T13:13:55.573Z,101405.13
2022-09-20T13:16:36.311Z,101399.06
2022-09-20T13:19:29.926Z,101413.31
2022-09-20T13:22:27.161Z,101401.63
2022-09-20T13:24:59.541Z,101412.19
2022-09-20T13:27:32.388Z,101423.97
2022-09-20T13:30:26.879Z,101416.63
2022-09-20T13:32:53.481Z,101406.22
2022-09-20T13:35:31.709Z,101418.47
2022-09-20T13:38:07.209Z,101422.16
2022-09-20T13:40:43.704Z,101414.59
2022-09-20T13:43:37.937Z,101403.91
2022-09-20T13:46:07.300Z,101419.22
2022-09-20T13:48:34.588Z,101423.09
2022-09-20T13:51:01.125Z,101418.69
2022-09-20T13:53:41.007Z,101423.34
2022-09-20T13:56:18.115Z,101422.72
2022-09-20T13:58:44.702Z,101418.38
2022-09-20T14:01:32.705Z,101425.66
2022-09-20T14:04:15.123Z,101416.41
2022-09-20T14:06:42.486Z,101419.81
2022-09-20T14:09:20.514Z,101416.06
2022-09-20T14:11:47.315Z,101423.91
2022-09-20T14:14:18.580Z,101414.53
2022-09-20T14:16:49.543Z,101417.59
2022-09-20T14:19:19.045Z,101421.97
2022-09-20T14:21:46.145Z,101416.81
2022-09-20T14:24:32.915Z,101418.72
2022-09-20T14:27:13.240Z,101420.97
2022-09-20T14:29:50.446Z,101407.56
2022-09-20T14:32:16.871Z,101410.75
2022-09-20T14:35:00.397Z,101413.78
2022-09-20T14:37:44.589Z,101419.28
2022-09-20T14:40:27.425Z,101419.69
2022-09-20T14:42:57.739Z,101418.13
2022-09-20T14:45:38.898Z,101414.66
2022-09-20T14:48:11.108Z,101421.25
2022-09-20T14:50:37.980Z,101420.72
2022-09-20T14:53:26.555Z,101417.63
2022-09-20T14:56:06.822Z,101421.56
2022-09-20T14:58:54.799Z,101424.09
2022-09-20T15:01:24.398Z,101431.34
2022-09-20T15:03:52.294Z,101428.44
2022-09-20T15:06:19.094Z,101434.41
2022-09-20T15:08:46.848Z,101437.22
2022-09-20T15:11:20.409Z,101440.69
2022-09-20T15:13:46.897Z,101448.47
2022-09-20T15:16:15.004Z,101442.25
2022-09-20T15:18:43.332Z,101446.72
2022-09-20T15:21:13.322Z,101452.06
2022-09-20T15:23:40.465Z,101457.50
2022-09-20T15:26:08.791Z,101456.44
2022-09-20T15:28:35.298Z,101463.09
2022-09-20T15:31:01.827Z,101467.00
2022-09-20T15:33:30.967Z,101465.66
2022-09-20T15:35:58.250Z,101463.28
2022-09-20T15:38:26.992Z,101463.28
2022-09-20T15:40:54.108Z,101468.00
2022-09-20T15:43:24.232Z,101473.41
2022-09-20T15:45:54.057Z,101473.06
2022-09-20T15:48:25.960Z,101468.69
2022-09-20T15:51:02.088Z,101473.25
2022-09-20T15:53:40.788Z,101487.59
2022-09-20T15:56:34.883Z,101483.84
2022-09-20T15:59:04.383Z,101485.28
2022-09-20T16:01:37.565Z,101488.03
2022-09-20T16:04:10.414Z,101478.44
2022-09-20T16:06:38.183Z,101472.53
2022-09-20T16:09:05.788Z,101464.06
2022-09-20T16:11:32.462Z,101463.94
2022-09-20T16:14:00.188Z,101469.25
2022-09-20T16:16:35.033Z,101469.44
2022-09-20T16:19:19.790Z,101472.06
2022-09-20T16:21:57.626Z,101471.94
2022-09-20T16:24:30.962Z,101476.53
2022-09-20T16:27:00.771Z,101478.22
2022-09-20T16:29:29.417Z,101484.81
2022-09-20T16:31:57.627Z,101476.22
2022-09-20T16:34:33.190Z,101480.56
2022-09-20T16:37:05.952Z,101482.75
2022-09-20T16:39:32.804Z,101481.06
2022-09-20T16:42:04.928Z,101484.28
2022-09-20T16:44:34.139Z,101483.06
2022-09-20T16:47:01.234Z,101485.44
2022-09-20T16:49:27.885Z,101484.88
2022-09-20T16:51:54.689Z,101494.19
2022-09-20T16:54:21.209Z,101489.63
2022-09-20T16:56:49.568Z,101498.75
2022-09-20T16:59:24.073Z,101494.50
2022-09-20T17:01:51.101Z,101494.50
2022-09-20T17:04:18.892Z,101501.56
2022-09-20T17:06:45.911Z,101495.66
2022-09-20T17:09:13.745Z,101504.31
2022-09-20T17:11:50.871Z,101509.41
2022-09-20T17:14:20.275Z,101499.91
2022-09-20T17:16:48.039Z,101501.41
2022-09-20T17:19:16.862Z,101507.69
2022-09-20T17:21:45.133Z,101505.28
2022-09-20T17:24:13.706Z,101514.75
2022-09-20T17:26:44.632Z,101517.09
2022-09-20T17:29:13.936Z,101517.41
2022-09-20T17:31:42.394Z,101529.94
2022-09-20T17:34:11.057Z,101528.63
2022-09-20T17:36:40.735Z,101527.41
2022-09-20T17:39:10.869Z,101535.28
2022-09-20T17:41:38.224Z,101541.00
2022-09-20T17:44:12.033Z,101545.75
2022-09-20T17:46:43.678Z,101544.66
2022-09-20T17:49:12.681Z,101549.97
2022-09-20T17:51:42.196Z,101549.63
2022-09-20T17:54:12.825Z,101552.16
2022-09-20T17:56:47.554Z,101552.50
2022-09-20T17:59:18.143Z,101557.38
2022-09-20T18:01:46.910Z,101562.22
2022-09-20T18:04:13.845Z,101562.00
2022-09-20T18:06:48.906Z,101571.75
2022-09-20T18:09:17.647Z,101568.94
2022-09-20T18:11:46.377Z,101573.59
2022-09-20T18:14:15.624Z,101574.06
2022-09-20T18:16:45.673Z,101576.59
2022-09-20T18:19:13.082Z,101581.41
2022-09-20T18:21:40.842Z,101585.72
2022-09-20T18:24:09.263Z,101589.69
2022-09-20T18:26:36.999Z,101579.81
2022-09-20T18:29:11.032Z,101578.81
2022-09-20T18:31:48.978Z,101584.22
2022-09-20T18:34:20.917Z,101602.16
2022-09-20T18:36:52.883Z,101594.47
2022-09-20T18:39:24.156Z,101597.78
2022-09-20T18:41:52.895Z,101597.56
2022-09-20T18:44:20.240Z,101597.38
2022-09-20T18:46:47.043Z,101600.72
2022-09-20T18:49:15.089Z,101607.31
2022-09-20T18:51:42.687Z,101603.00
2022-09-20T18:54:10.555Z,101605.16
2022-09-20T18:56:39.497Z,101610.56
2022-09-20T18:59:10.219Z,101603.59
2022-09-20T19:01:42.855Z,101605.91
2022-09-20T19:04:12.387Z,101606.16
2022-09-20T19:06:58.632Z,101607.53
2022-09-20T19:09:43.599Z,101605.28
2022-09-20T19:12:23.326Z,101619.91
2022-09-20T19:15:03.873Z,101610.44
2022-09-20T19:17:57.307Z,101613.66
2022-09-20T19:20:48.565Z,101615.97
2022-09-20T19:23:41.186Z,101626.59
2022-09-20T19:26:18.971Z,101625.72
2022-09-20T19:28:46.170Z,101624.81
2022-09-20T19:31:27.490Z,101626.91
2022-09-20T19:33:56.075Z,101628.97
2022-09-20T19:36:24.175Z,101633.38
2022-09-20T19:38:58.260Z,101635.22
2022-09-20T19:41:27.270Z,101635.75
2022-09-20T19:44:28.535Z,101642.47
2022-09-20T19:47:16.372Z,101638.28
2022-09-20T19:49:55.757Z,101646.97
2022-09-20T19:52:25.253Z,101656.38
2022-09-20T19:54:52.406Z,101653.44
2022-09-20T19:57:22.704Z,101655.78
2022-09-20T19:59:50.946Z,101648.00
